Time;durP1;ratioP1;P1;durP2;ratioP2;P2;SDS_P1;SDS_P2;PMS_P1;PMS_P2;Temp;Humidity;BMP_temperature;BMP_pressure;BME280_temperature;BME280_humidity;BME280_pressure;Samples;Min_cycle;Max_cycle;Signal;HPM_P1;HPM_P2
2023/12/25 00:02:25;;;;;;;;;;;17.30;62.50;;;;;;5064415;28;43747;-78
2023/12/25 00:04:50;;;;;;;;;;;17.50;62.20;;;;;;5064911;28;42807;-77
2023/12/25 00:07:16;;;;;;;;;;;17.30;61.90;;;;;;5064143;28;43546;-79
2023/12/25 00:09:41;;;;;;;;;;;17.20;61.90;;;;;;5058850;28;42994;-78
2023/12/25 00:12:10;;;;;;;;;;;17.30;62.10;;;;;;5064102;28;43470;-82
2023/12/25 00:14:36;;;;;;;;;;;17.30;62.10;;;;;;5044812;28;43142;-81
2023/12/25 00:17:02;;;;;;;;;;;;;;;;;;5045572;28;43918;-92
2023/12/25 00:22:03;;;;;;;;;;;17.50;61.80;;;;;;5387518;22;43785;-86
2023/12/25 00:24:29;;;;;;;;;;;17.30;61.80;;;;;;5051783;28;42988;-87
2023/12/25 00:26:54;;;;;;;;;;;17.30;61.90;;;;;;5070981;28;43031;-81
2023/12/25 00:29:22;;;;;;;;;;;17.40;62.00;;;;;;5078030;27;43080;-83
2023/12/25 00:31:48;;;;;;;;;;;17.40;61.90;;;;;;5069473;28;43139;-89
2023/12/25 00:34:15;;;;;;;;;;;17.40;61.90;;;;;;5069641;28;42969;-84
2023/12/25 00:36:40;;;;;;;;;;;17.40;62.00;;;;;;5067261;28;43511;-83
2023/12/25 00:39:06;;;;;;;;;;;17.20;61.90;;;;;;5071041;28;42902;-82
2023/12/25 00:41:31;;;;;;;;;;;17.40;61.90;;;;;;5066050;28;42759;-83
2023/12/25 00:43:58;;;;;;;;;;;17.40;61.90;;;;;;5067343;28;42938;-85
2023/12/25 00:46:23;;;;;;;;;;;17.30;61.90;;;;;;5047713;28;43043;-85
2023/12/25 00:48:49;;;;;;;;;;;17.30;61.90;;;;;;5066356;28;43020;-85
2023/12/25 00:51:14;;;;;;;;;;;17.30;62.00;;;;;;5056459;28;45003;-86
2023/12/25 00:53:40;;;;;;;;;;;17.20;61.90;;;;;;5087580;28;43039;-83
2023/12/25 00:56:06;;;;;;;;;;;17.30;61.90;;;;;;5069286;28;43539;-83
2023/12/25 00:58:31;;;;;;;;;;;17.20;61.70;;;;;;5059454;28;43984;-85
2023/12/25 01:00:57;;;;;;;;;;;17.20;62.10;;;;;;5070678;28;42972;-87
2023/12/25 01:03:22;;;;;;;;;;;17.30;62.00;;;;;;5067224;28;43054;-85
2023/12/25 01:05:48;;;;;;;;;;;17.30;61.90;;;;;;5067151;28;42980;-85
2023/12/25 01:08:13;;;;;;;;;;;17.30;61.90;;;;;;5042377;28;42912;-81
2023/12/25 01:10:39;;;;;;;;;;;17.30;62.10;;;;;;5066519;28;43282;-81
2023/12/25 01:13:04;;;;;;;;;;;17.20;62.40;;;;;;5067305;28;42982;-81
2023/12/25 01:15:30;;;;;;;;;;;17.30;61.90;;;;;;5074019;28;42953;-81
2023/12/25 01:17:55;;;;;;;;;;;17.30;61.80;;;;;;5061133;28;42986;-81
2023/12/25 01:20:21;;;;;;;;;;;17.40;61.90;;;;;;5049747;28;43590;-81
2023/12/25 01:22:46;;;;;;;;;;;17.30;62.10;;;;;;5018491;28;44335;-78
2023/12/25 01:25:12;;;;;;;;;;;17.30;61.90;;;;;;5019912;28;43108;-81
2023/12/25 01:27:41;;;;;;;;;;;17.40;61.90;;;;;;5016123;28;42990;-80
2023/12/25 01:30:10;;;;;;;;;;;17.30;61.90;;;;;;5012477;28;43408;-78
2023/12/25 01:32:36;;;;;;;;;;;17.40;62.00;;;;;;5021882;28;43366;-81
2023/12/25 01:35:01;;;;;;;;;;;17.50;62.10;;;;;;5026551;28;43222;-79
2023/12/25 01:37:27;;;;;;;;;;;17.30;62.70;;;;;;5025463;28;42832;-80
2023/12/25 01:39:53;;;;;;;;;;;17.30;62.50;;;;;;5008585;28;43540;-79
2023/12/25 01:42:18;;;;;;;;;;;17.50;62.50;;;;;;5008003;28;42984;-80
2023/12/25 01:44:46;;;;;;;;;;;17.20;62.60;;;;;;5024855;28;43702;-81
2023/12/25 01:47:12;;;;;;;;;;;17.30;62.10;;;;;;5023203;28;42986;-79
2023/12/25 01:49:38;;;;;;;;;;;17.30;62.10;;;;;;5023488;28;43621;-83
2023/12/25 01:52:04;;;;;;;;;;;17.30;62.20;;;;;;5022378;28;42922;-80
2023/12/25 01:54:30;;;;;;;;;;;17.10;62.30;;;;;;5025218;28;43076;-80
2023/12/25 01:56:55;;;;;;;;;;;17.40;62.90;;;;;;5022619;28;43009;-80
2023/12/25 01:59:21;;;;;;;;;;;17.30;62.60;;;;;;5025615;28;43397;-79
2023/12/25 02:01:46;;;;;;;;;;;17.20;62.70;;;;;;5024459;28;42890;-84
2023/12/25 02:04:12;;;;;;;;;;;17.40;62.50;;;;;;5027316;28;42958;-79
2023/12/25 02:06:41;;;;;;;;;;;17.50;62.50;;;;;;5030441;28;43609;-84
2023/12/25 02:09:07;;;;;;;;;;;17.30;62.40;;;;;;5020605;28;45014;-81
2023/12/25 02:11:33;;;;;;;;;;;17.20;62.40;;;;;;5016665;28;43093;-80
2023/12/25 02:14:01;;;;;;;;;;;17.40;62.50;;;;;;5016348;28;44003;-80
2023/12/25 02:16:26;;;;;;;;;;;17.40;62.50;;;;;;5024409;28;42993;-80
2023/12/25 02:18:52;;;;;;;;;;;17.40;62.30;;;;;;5022783;28;43609;-80
2023/12/25 02:21:17;;;;;;;;;;;17.30;63.00;;;;;;5040019;28;42966;-80
2023/12/25 02:23:46;;;;;;;;;;;17.40;62.60;;;;;;5065201;28;43690;-81
2023/12/25 02:26:12;;;;;;;;;;;17.40;62.60;;;;;;5072768;28;42890;-80
2023/12/25 02:28:38;;;;;;;;;;;17.30;62.60;;;;;;5076236;28;42992;-80
2023/12/25 02:31:05;;;;;;;;;;;17.50;62.70;;;;;;5072756;28;43019;-80
2023/12/25 02:33:31;;;;;;;;;;;17.50;62.70;;;;;;5068657;28;43376;-80
2023/12/25 02:35:56;;;;;;;;;;;17.40;62.70;;;;;;5069567;28;42914;-80
2023/12/25 02:38:22;;;;;;;;;;;17.30;62.70;;;;;;5065522;28;43584;-80
2023/12/25 02:40:47;;;;;;;;;;;17.10;62.50;;;;;;5065083;28;43062;-79
2023/12/25 02:43:13;;;;;;;;;;;17.30;62.80;;;;;;5076616;28;43975;-80
2023/12/25 02:45:38;;;;;;;;;;;17.40;63.20;;;;;;5068007;28;43033;-80
2023/12/25 02:48:04;;;;;;;;;;;17.30;62.60;;;;;;5083838;28;43355;-80
2023/12/25 02:50:29;;;;;;;;;;;17.30;62.70;;;;;;5069638;28;42909;-80
2023/12/25 02:52:55;;;;;;;;;;;17.40;62.70;;;;;;5064022;28;42947;-81
2023/12/25 02:55:22;;;;;;;;;;;;;;;;;;5058518;28;43228;-78
2023/12/25 02:57:47;;;;;;;;;;;17.30;62.00;;;;;;5066632;28;43853;-80
2023/12/25 03:00:13;;;;;;;;;;;17.50;62.80;;;;;;5063951;28;43791;-79
2023/12/25 03:02:39;;;;;;;;;;;17.30;62.30;;;;;;5065065;28;43471;-79
2023/12/25 03:05:05;;;;;;;;;;;17.40;62.80;;;;;;5063686;28;42804;-79
2023/12/25 03:07:30;;;;;;;;;;;17.20;62.70;;;;;;5063449;28;43901;-79
2023/12/25 03:09:56;;;;;;;;;;;17.30;62.70;;;;;;5065326;28;42982;-79
2023/12/25 03:12:21;;;;;;;;;;;17.30;62.60;;;;;;5058103;28;43548;-79
2023/12/25 03:14:47;;;;;;;;;;;17.40;62.60;;;;;;5081153;28;42979;-79
2023/12/25 03:17:12;;;;;;;;;;;17.40;62.90;;;;;;5063399;28;43734;-79
2023/12/25 03:19:38;;;;;;;;;;;17.30;63.30;;;;;;5062967;28;42918;-79
2023/12/25 03:22:03;;;;;;;;;;;17.30;62.90;;;;;;5073201;28;42999;-81
2023/12/25 03:24:29;;;;;;;;;;;17.20;63.20;;;;;;5065112;28;43009;-79
2023/12/25 03:26:54;;;;;;;;;;;17.30;62.90;;;;;;5063698;28;43652;-80
2023/12/25 03:29:20;;;;;;;;;;;17.40;63.50;;;;;;5063487;28;42983;-79
2023/12/25 03:31:45;;;;;;;;;;;17.30;63.50;;;;;;5064285;28;43076;-80
2023/12/25 03:34:16;;;;;;;;;;;17.30;63.60;;;;;;5073977;28;42960;-79
2023/12/25 03:36:42;;;;;;;;;;;17.30;63.00;;;;;;5069648;28;42979;-79
2023/12/25 03:39:07;;;;;;;;;;;17.30;63.60;;;;;;5063058;28;42953;-79
2023/12/25 03:41:34;;;;;;;;;;;;;;;;;;5064024;28;43715;-79
2023/12/25 03:44:00;;;;;;;;;;;17.20;63.10;;;;;;5063495;28;42847;-79
2023/12/25 03:46:25;;;;;;;;;;;17.40;63.30;;;;;;5064456;28;43704;-79
2023/12/25 03:48:51;;;;;;;;;;;17.30;64.00;;;;;;5063120;28;42976;-79
2023/12/25 03:51:16;;;;;;;;;;;17.30;63.40;;;;;;5063659;28;42908;-80
2023/12/25 03:53:42;;;;;;;;;;;17.30;63.40;;;;;;5063157;28;42913;-79
2023/12/25 03:56:08;;;;;;;;;;;17.40;64.00;;;;;;5062892;28;43191;-80
2023/12/25 03:58:34;;;;;;;;;;;17.30;63.50;;;;;;5063562;28;42902;-79
2023/12/25 04:00:59;;;;;;;;;;;17.40;64.10;;;;;;5064216;28;44006;-79
2023/12/25 04:03:25;;;;;;;;;;;17.40;63.50;;;;;;5063219;28;42979;-80
2023/12/25 04:05:50;;;;;;;;;;;17.30;63.60;;;;;;5066333;28;43416;-79
2023/12/25 04:08:16;;;;;;;;;;;17.20;63.70;;;;;;5078836;28;42831;-80
2023/12/25 04:10:41;;;;;;;;;;;17.30;64.20;;;;;;5067557;28;42865;-79
2023/12/25 04:13:07;;;;;;;;;;;17.50;63.70;;;;;;5068906;28;43277;-80
2023/12/25 04:15:33;;;;;;;;;;;17.40;63.70;;;;;;5085235;28;43063;-79
2023/12/25 04:17:58;;;;;;;;;;;17.40;63.90;;;;;;5070550;28;43137;-80
2023/12/25 04:20:24;;;;;;;;;;;17.50;63.90;;;;;;5066516;28;42911;-79
2023/12/25 04:22:49;;;;;;;;;;;17.30;63.90;;;;;;5074998;28;43047;-79
2023/12/25 04:25:15;;;;;;;;;;;17.30;63.80;;;;;;5066532;28;42921;-79
2023/12/25 04:27:41;;;;;;;;;;;;;;;;;;5066941;28;43064;-79
2023/12/25 04:30:07;;;;;;;;;;;17.20;63.70;;;;;;5069994;28;42885;-80
2023/12/25 04:32:32;;;;;;;;;;;17.40;64.10;;;;;;5066317;28;42973;-80
2023/12/25 04:34:58;;;;;;;;;;;17.30;64.30;;;;;;5084617;28;43371;-79
2023/12/25 04:37:23;;;;;;;;;;;17.30;63.90;;;;;;5071830;28;43088;-80
2023/12/25 04:39:49;;;;;;;;;;;17.30;63.90;;;;;;5079881;28;43564;-80
2023/12/25 04:42:14;;;;;;;;;;;17.30;64.00;;;;;;5071619;28;42957;-79
2023/12/25 04:44:40;;;;;;;;;;;17.20;63.30;;;;;;5066382;28;43292;-80
2023/12/25 04:47:06;;;;;;;;;;;17.30;63.90;;;;;;5063588;28;43024;-79
2023/12/25 04:49:31;;;;;;;;;;;17.30;63.90;;;;;;5079478;28;43956;-80
2023/12/25 04:51:57;;;;;;;;;;;17.40;64.00;;;;;;5072589;28;43075;-79
2023/12/25 04:54:22;;;;;;;;;;;17.30;64.50;;;;;;5067266;28;43931;-79
2023/12/25 04:56:48;;;;;;;;;;;17.30;64.70;;;;;;5066095;28;43028;-79
2023/12/25 04:59:15;;;;;;;;;;;17.40;64.30;;;;;;5068985;28;44240;-79
2023/12/25 05:01:40;;;;;;;;;;;17.40;64.30;;;;;;5068914;28;43196;-80
2023/12/25 05:04:06;;;;;;;;;;;17.40;64.30;;;;;;5073549;28;43590;-79
2023/12/25 05:06:31;;;;;;;;;;;17.20;64.70;;;;;;5070704;28;42956;-79
2023/12/25 05:08:57;;;;;;;;;;;17.30;64.40;;;;;;5065810;28;43587;-80
2023/12/25 05:11:23;;;;;;;;;;;17.40;64.40;;;;;;5065387;28;43017;-80
2023/12/25 05:13:49;;;;;;;;;;;17.40;64.40;;;;;;5052632;28;44362;-79
2023/12/25 05:16:15;;;;;;;;;;;17.40;64.50;;;;;;5065749;28;42918;-79
2023/12/25 05:18:40;;;;;;;;;;;17.30;64.40;;;;;;5052181;28;43204;-79
2023/12/25 05:21:09;;;;;;;;;;;17.40;64.60;;;;;;5063741;28;42960;-80
2023/12/25 05:23:34;;;;;;;;;;;17.30;63.00;;;;;;5052272;28;42922;-80
2023/12/25 05:26:00;;;;;;;;;;;17.40;64.60;;;;;;5064840;28;43182;-79
2023/12/25 05:28:25;;;;;;;;;;;17.20;64.70;;;;;;5065120;28;44724;-80
2023/12/25 05:30:51;;;;;;;;;;;17.30;64.70;;;;;;5064995;28;42803;-79
2023/12/25 05:33:17;;;;;;;;;;;17.40;65.20;;;;;;5046593;28;44804;-79
2023/12/25 05:35:43;;;;;;;;;;;17.20;65.20;;;;;;5065991;28;42867;-79
2023/12/25 05:38:08;;;;;;;;;;;17.20;65.10;;;;;;5064885;28;43323;-80
2023/12/25 05:40:34;;;;;;;;;;;17.30;64.80;;;;;;5047186;28;43095;-79
2023/12/25 05:42:59;;;;;;;;;;;17.30;64.80;;;;;;5072137;28;43416;-79
2023/12/25 05:45:25;;;;;;;;;;;17.20;64.80;;;;;;5069289;28;43004;-80
2023/12/25 05:47:50;;;;;;;;;;;17.40;65.00;;;;;;5065153;28;43366;-80
2023/12/25 05:50:16;;;;;;;;;;;17.40;65.00;;;;;;5066180;28;42952;-80
2023/12/25 05:52:41;;;;;;;;;;;17.30;64.90;;;;;;5066486;28;43775;-79
2023/12/25 05:55:07;;;;;;;;;;;17.40;65.00;;;;;;5047495;28;43077;-80
2023/12/25 05:57:32;;;;;;;;;;;17.30;64.90;;;;;;5071251;28;43422;-79
2023/12/25 05:59:58;;;;;;;;;;;17.40;65.10;;;;;;5065539;28;43027;-79
2023/12/25 06:02:23;;;;;;;;;;;17.30;65.10;;;;;;5065640;28;43884;-80
2023/12/25 06:04:49;;;;;;;;;;;17.30;65.10;;;;;;5065715;28;43059;-80
2023/12/25 06:07:15;;;;;;;;;;;17.20;65.20;;;;;;5070225;28;43516;-82
2023/12/25 06:09:40;;;;;;;;;;;17.40;65.20;;;;;;5070502;28;43131;-81
2023/12/25 06:12:06;;;;;;;;;;;17.40;65.20;;;;;;5066249;28;44011;-80
2023/12/25 06:14:31;;;;;;;;;;;17.20;65.10;;;;;;5044064;28;43031;-80
2023/12/25 06:16:57;;;;;;;;;;;17.30;65.30;;;;;;5068651;28;43777;-82
2023/12/25 06:19:23;;;;;;;;;;;17.50;65.60;;;;;;5068347;28;42984;-79
2023/12/25 06:21:49;;;;;;;;;;;17.50;65.40;;;;;;5063875;28;43816;-79
2023/12/25 06:24:15;;;;;;;;;;;17.30;65.30;;;;;;5049462;28;42926;-80
2023/12/25 06:26:40;;;;;;;;;;;17.30;65.40;;;;;;5069342;28;43743;-80
2023/12/25 06:29:06;;;;;;;;;;;17.40;65.10;;;;;;5058007;28;44274;-79
2023/12/25 06:31:31;;;;;;;;;;;17.40;65.10;;;;;;5049430;28;44110;-80
2023/12/25 06:33:57;;;;;;;;;;;17.10;65.10;;;;;;5045152;28;42976;-80
2023/12/25 06:36:22;;;;;;;;;;;17.20;65.20;;;;;;5034390;28;45637;-82
2023/12/25 06:38:48;;;;;;;;;;;17.40;65.30;;;;;;5067346;28;43052;-80
2023/12/25 06:41:13;;;;;;;;;;;17.30;65.30;;;;;;5065436;28;43475;-82
2023/12/25 06:43:39;;;;;;;;;;;17.30;65.20;;;;;;5065509;28;42923;-79
2023/12/25 06:46:04;;;;;;;;;;;17.30;65.20;;;;;;5031284;28;45481;-82
2023/12/25 06:48:30;;;;;;;;;;;17.30;65.30;;;;;;5029064;28;43343;-81
2023/12/25 06:50:55;;;;;;;;;;;17.40;65.30;;;;;;5049687;28;43693;-83
2023/12/25 06:53:21;;;;;;;;;;;17.40;65.40;;;;;;5054095;28;42944;-80
2023/12/25 06:55:46;;;;;;;;;;;17.30;65.40;;;;;;5048450;28;43014;-81
2023/12/25 06:58:12;;;;;;;;;;;17.30;65.50;;;;;;5045284;28;43056;-81
2023/12/25 07:00:38;;;;;;;;;;;17.30;65.40;;;;;;5042866;28;44933;-80
2023/12/25 07:03:03;;;;;;;;;;;17.40;65.60;;;;;;5050498;28;43251;-80
2023/12/25 07:05:29;;;;;;;;;;;17.40;65.60;;;;;;5060739;28;43717;-80
2023/12/25 07:07:55;;;;;;;;;;;17.30;65.50;;;;;;5053880;28;43140;-79
2023/12/25 07:10:20;;;;;;;;;;;17.30;65.50;;;;;;5064153;28;43950;-81
2023/12/25 07:12:46;;;;;;;;;;;17.30;65.50;;;;;;5064970;28;42835;-83
2023/12/25 07:15:11;;;;;;;;;;;17.40;65.60;;;;;;5059542;28;42988;-83
2023/12/25 07:17:37;;;;;;;;;;;17.30;65.50;;;;;;5055216;28;43065;-84
2023/12/25 07:20:03;;;;;;;;;;;17.30;65.30;;;;;;5053543;28;42966;-84
2023/12/25 07:22:29;;;;;;;;;;;17.30;65.30;;;;;;5028633;28;43576;-80
2023/12/25 07:24:54;;;;;;;;;;;17.30;65.30;;;;;;5062445;28;43325;-78
2023/12/25 07:27:20;;;;;;;;;;;17.40;65.30;;;;;;5064031;28;42925;-79
2023/12/25 07:29:45;;;;;;;;;;;17.30;65.80;;;;;;5063654;28;42899;-83
2023/12/25 07:32:11;;;;;;;;;;;17.30;65.20;;;;;;5063598;28;42970;-81
2023/12/25 07:34:36;;;;;;;;;;;17.20;65.20;;;;;;5062755;28;43543;-79
2023/12/25 07:37:02;;;;;;;;;;;17.30;65.30;;;;;;5063226;28;42925;-81
2023/12/25 07:39:27;;;;;;;;;;;17.20;65.30;;;;;;5038922;28;44895;-80
2023/12/25 07:41:55;;;;;;;;;;;17.40;65.40;;;;;;5057756;28;42908;-80
2023/12/25 07:44:21;;;;;;;;;;;17.40;65.40;;;;;;5054395;28;42882;-79
2023/12/25 07:46:46;;;;;;;;;;;17.50;65.40;;;;;;5056640;28;43221;-81
2023/12/25 07:49:12;;;;;;;;;;;17.20;65.30;;;;;;5053025;28;44007;-79
2023/12/25 07:51:37;;;;;;;;;;;17.30;65.30;;;;;;5056036;28;42932;-81
2023/12/25 07:54:03;;;;;;;;;;;17.30;65.30;;;;;;5053017;28;43634;-82
2023/12/25 07:56:28;;;;;;;;;;;17.30;65.40;;;;;;5065011;28;43835;-81
2023/12/25 07:58:54;;;;;;;;;;;17.40;65.50;;;;;;5074334;28;43419;-80
2023/12/25 08:01:22;;;;;;;;;;;17.40;65.60;;;;;;5065595;28;43104;-79
2023/12/25 08:03:49;;;;;;;;;;;17.30;65.50;;;;;;5075445;28;43007;-81
2023/12/25 08:06:14;;;;;;;;;;;17.30;65.50;;;;;;5068221;28;43086;-81
2023/12/25 08:08:40;;;;;;;;;;;17.20;65.60;;;;;;5065569;28;43916;-83
2023/12/25 08:11:05;;;;;;;;;;;17.30;65.60;;;;;;5064666;28;42988;-80
2023/12/25 08:13:31;;;;;;;;;;;17.30;65.50;;;;;;5068294;28;43506;-80
2023/12/25 08:15:56;;;;;;;;;;;17.40;66.20;;;;;;5059606;28;43119;-80
2023/12/25 08:18:22;;;;;;;;;;;17.20;65.80;;;;;;5060385;28;43232;-79
2023/12/25 08:20:50;;;;;;;;;;;17.30;65.50;;;;;;5060879;28;43116;-83
2023/12/25 08:23:15;;;;;;;;;;;17.30;64.30;;;;;;5039971;28;44044;-84
2023/12/25 08:25:41;;;;;;;;;;;17.30;64.20;;;;;;5053658;28;43078;-85
2023/12/25 08:28:07;;;;;;;;;;;17.40;64.40;;;;;;5065334;28;44291;-88
2023/12/25 08:30:32;;;;;;;;;;;17.40;64.40;;;;;;5051779;28;43081;-86
2023/12/25 08:32:58;;;;;;;;;;;17.30;64.50;;;;;;5057596;28;44095;-87
2023/12/25 08:35:23;;;;;;;;;;;17.40;64.70;;;;;;5056247;28;42978;-87
2023/12/25 08:37:49;;;;;;;;;;;17.50;64.70;;;;;;5045501;28;44330;-88
2023/12/25 08:40:15;;;;;;;;;;;17.00;64.30;;;;;;5055915;28;43395;-85
2023/12/25 08:42:40;;;;;;;;;;;17.30;64.80;;;;;;5060347;28;43509;-86
2023/12/25 08:45:09;;;;;;;;;;;17.60;65.10;;;;;;5063374;28;43033;-87
2023/12/25 08:47:34;;;;;;;;;;;17.30;65.10;;;;;;5052351;28;43479;-88
2023/12/25 08:50:00;;;;;;;;;;;17.30;65.10;;;;;;5039206;28;43092;-84
2023/12/25 08:52:25;;;;;;;;;;;17.50;65.40;;;;;;5060115;28;43152;-87
2023/12/25 08:54:51;;;;;;;;;;;17.40;65.40;;;;;;5044839;28;43529;-86
2023/12/25 08:57:17;;;;;;;;;;;17.30;65.70;;;;;;5068351;28;43833;-87
2023/12/25 08:59:45;;;;;;;;;;;;;;;;;;5063291;28;43117;-89
2023/12/25 09:02:11;;;;;;;;;;;17.20;66.10;;;;;;5060812;28;43790;-88
2023/12/25 09:04:39;;;;;;;;;;;17.30;67.50;;;;;;5044936;28;42987;-89
2023/12/25 09:07:08;;;;;;;;;;;17.40;66.50;;;;;;5045135;28;45458;-89
2023/12/25 09:09:35;;;;;;;;;;;17.70;65.10;;;;;;5070206;28;43884;-89
2023/12/25 09:12:01;;;;;;;;;;;;;;;;;;5067102;28;43541;-89
2023/12/25 09:14:27;;;;;;;;;;;17.30;67.50;;;;;;5071715;28;42900;-89
2023/12/25 09:16:56;;;;;;;;;;;;;;;;;;5045239;28;45670;-90
2023/12/25 09:19:40;;;;;;;;;;;;;;;;;;5056576;28;43008;-85
2023/12/25 09:22:06;;;;;;;;;;;17.40;68.00;;;;;;5056420;28;44029;-86
2023/12/25 09:24:32;;;;;;;;;;;;;;;;;;5059109;28;43073;-87
2023/12/25 09:26:58;;;;;;;;;;;;;;;;;;5053010;28;43066;-87
2023/12/25 09:29:24;;;;;;;;;;;;;;;;;;5049381;28;43018;-87
2023/12/25 09:31:50;;;;;;;;;;;;;;;;;;5053388;28;46487;-87
2023/12/25 09:34:15;;;;;;;;;;;17.60;69.70;;;;;;5076378;28;43193;-86
2023/12/25 09:36:41;;;;;;;;;;;17.60;65.00;;;;;;5054861;28;43604;-87
2023/12/25 09:39:07;;;;;;;;;;;17.50;64.70;;;;;;5063805;28;43477;-88
2023/12/25 09:41:33;;;;;;;;;;;17.40;64.60;;;;;;5068865;28;42909;-87
2023/12/25 09:44:02;;;;;;;;;;;17.50;64.70;;;;;;5046908;28;43368;-86
2023/12/25 09:46:28;;;;;;;;;;;17.10;64.80;;;;;;5049276;28;44413;-87
2023/12/25 09:48:55;;;;;;;;;;;17.40;64.90;;;;;;5069698;28;43599;-89
2023/12/25 09:51:21;;;;;;;;;;;17.30;64.90;;;;;;5041279;28;44240;-88
2023/12/25 09:53:47;;;;;;;;;;;17.50;65.00;;;;;;5061021;28;43774;-87
2023/12/25 09:56:14;;;;;;;;;;;17.40;65.00;;;;;;5060928;28;43921;-88
2023/12/25 09:58:40;;;;;;;;;;;17.50;65.00;;;;;;5062169;28;43358;-88
2023/12/25 10:01:06;;;;;;;;;;;17.50;64.90;;;;;;5047503;28;44110;-88
2023/12/25 10:03:35;;;;;;;;;;;17.40;64.80;;;;;;5062987;28;42977;-89
2023/12/25 10:06:04;;;;;;;;;;;17.60;65.10;;;;;;5063741;28;43763;-88
2023/12/25 10:08:30;;;;;;;;;;;17.60;65.10;;;;;;5054275;28;42921;-87
2023/12/25 10:10:56;;;;;;;;;;;17.50;65.30;;;;;;5058795;28;42871;-89
2023/12/25 10:13:25;;;;;;;;;;;17.60;65.10;;;;;;5058826;28;42933;-83
2023/12/25 10:15:51;;;;;;;;;;;17.60;65.30;;;;;;5046932;28;43444;-83
2023/12/25 10:18:18;;;;;;;;;;;17.50;65.40;;;;;;5053397;28;42907;-83
2023/12/25 10:20:54;;;;;;;;;;;17.40;65.30;;;;;;5049759;28;43107;-83
2023/12/25 10:23:19;;;;;;;;;;;17.40;65.40;;;;;;5051672;28;42922;-83
2023/12/25 10:25:45;;;;;;;;;;;17.50;65.60;;;;;;5054824;28;44552;-82
2023/12/25 10:28:11;;;;;;;;;;;17.50;65.80;;;;;;5061849;28;43053;-85
2023/12/25 10:30:37;;;;;;;;;;;17.60;66.10;;;;;;5064611;28;43998;-91
2023/12/25 10:33:09;;;;;;;;;;;17.50;65.70;;;;;;5043761;28;43250;-85
2023/12/25 10:35:34;;;;;;;;;;;18.70;66.80;;;;;;5064869;28;43298;-84
2023/12/25 10:38:03;;;;;;;;;;;17.50;66.10;;;;;;5060976;28;42989;-85
2023/12/25 10:40:31;;;;;;;;;;;17.40;65.90;;;;;;5053657;28;43001;-83
2023/12/25 10:42:57;;;;;;;;;;;17.40;66.20;;;;;;5076714;28;43235;-84
2023/12/25 10:48:21;;;;;;;;;;;17.60;65.90;;;;;;5033145;28;43257;-83
2023/12/25 10:50:47;;;;;;;;;;;17.60;66.40;;;;;;5050573;28;42915;-94
2023/12/25 10:53:16;;;;;;;;;;;17.60;66.40;;;;;;5062010;28;42987;-76
2023/12/25 10:55:42;;;;;;;;;;;17.60;66.40;;;;;;5050196;28;43673;-76
2023/12/25 10:58:10;;;;;;;;;;;17.50;66.90;;;;;;5057965;28;43310;-81
2023/12/25 11:00:37;;;;;;;;;;;17.70;66.20;;;;;;5061482;28;43845;-77
2023/12/25 11:03:05;;;;;;;;;;;17.60;65.50;;;;;;5043969;28;42998;-75
2023/12/25 11:05:33;;;;;;;;;;;17.60;66.70;;;;;;5061079;28;43309;-76
2023/12/25 11:07:58;;;;;;;;;;;18.60;65.80;;;;;;5049825;28;43111;-76
2023/12/25 11:10:24;;;;;;;;;;;17.60;66.30;;;;;;5059973;28;43600;-76
2023/12/25 11:12:50;;;;;;;;;;;17.60;65.70;;;;;;5061793;28;43165;-76
2023/12/25 11:15:16;;;;;;;;;;;17.50;66.30;;;;;;5067178;28;44434;-75
2023/12/25 11:17:41;;;;;;;;;;;17.60;65.80;;;;;;5055619;28;44377;-77
2023/12/25 11:20:11;;;;;;;;;;;17.50;66.10;;;;;;5064259;28;42985;-80
2023/12/25 11:22:39;;;;;;;;;;;17.60;66.10;;;;;;5058357;28;43810;-80
2023/12/25 11:25:30;;;;;;;;;;;17.50;66.20;;;;;;5040634;28;43581;-85
2023/12/25 11:27:59;;;;;;;;;;;17.60;66.40;;;;;;5055286;28;43004;-85
2023/12/25 11:30:25;;;;;;;;;;;18.00;66.30;;;;;;5062183;28;43385;-85
2023/12/25 11:32:51;;;;;;;;;;;17.60;65.90;;;;;;5046499;28;42919;-84
2023/12/25 11:35:29;;;;;;;;;;;17.70;65.90;;;;;;5049936;28;44632;-84
2023/12/25 11:38:13;;;;;;;;;;;17.60;65.70;;;;;;5046396;28;43036;-84
2023/12/25 11:40:39;;;;;;;;;;;17.70;65.90;;;;;;5048046;28;43674;-84
2023/12/25 11:43:07;;;;;;;;;;;17.70;65.80;;;;;;5063210;28;43172;-84
2023/12/25 11:45:36;;;;;;;;;;;17.60;65.60;;;;;;5064619;28;42879;-84
2023/12/25 11:48:02;;;;;;;;;;;17.70;65.80;;;;;;5074205;28;42844;-84
2023/12/25 11:50:31;;;;;;;;;;;17.70;65.60;;;;;;5069557;28;43146;-89
2023/12/25 11:52:56;;;;;;;;;;;17.80;65.60;;;;;;5067054;28;42965;-85
2023/12/25 11:55:23;;;;;;;;;;;17.70;65.60;;;;;;5065063;28;43726;-84
2023/12/25 11:57:51;;;;;;;;;;;17.60;65.40;;;;;;5064824;28;42980;-84
2023/12/25 12:00:18;;;;;;;;;;;17.60;65.50;;;;;;5065092;28;43570;-86
2023/12/25 12:02:44;;;;;;;;;;;17.70;65.50;;;;;;5065565;28;42883;-84
2023/12/25 12:05:10;;;;;;;;;;;17.80;65.60;;;;;;5046361;28;45593;-84
2023/12/25 12:07:35;;;;;;;;;;;17.70;65.30;;;;;;5065225;28;42952;-85
2023/12/25 12:10:01;;;;;;;;;;;17.60;65.40;;;;;;5064417;28;43009;-84
2023/12/25 12:12:27;;;;;;;;;;;17.90;65.50;;;;;;5047141;28;43020;-85
2023/12/25 12:14:53;;;;;;;;;;;17.70;65.30;;;;;;5064265;28;43175;-84
2023/12/25 12:17:18;;;;;;;;;;;17.70;65.40;;;;;;5065299;28;42938;-85
2023/12/25 12:19:44;;;;;;;;;;;17.80;65.30;;;;;;5064509;28;42977;-85
2023/12/25 12:22:10;;;;;;;;;;;17.80;65.40;;;;;;5063605;28;43019;-85
2023/12/25 12:24:35;;;;;;;;;;;17.70;65.20;;;;;;5063969;28;43501;-87
2023/12/25 12:27:02;;;;;;;;;;;17.70;65.20;;;;;;5068068;28;43015;-85
2023/12/25 12:29:28;;;;;;;;;;;17.60;65.10;;;;;;5068382;28;43052;-84
2023/12/25 12:31:53;;;;;;;;;;;17.70;65.20;;;;;;5049946;28;42947;-84
2023/12/25 12:34:20;;;;;;;;;;;17.70;65.20;;;;;;5067988;28;42962;-84
2023/12/25 12:36:55;;;;;;;;;;;17.70;65.20;;;;;;5068638;28;42996;-85
2023/12/25 12:39:20;;;;;;;;;;;17.60;65.10;;;;;;5068342;28;42927;-84
2023/12/25 12:41:46;;;;;;;;;;;17.70;65.20;;;;;;5068220;28;43211;-85
2023/12/25 12:44:11;;;;;;;;;;;17.80;65.10;;;;;;5067580;28;44089;-84
2023/12/25 12:46:37;;;;;;;;;;;17.70;65.10;;;;;;5068374;28;42804;-85
2023/12/25 12:49:03;;;;;;;;;;;17.70;65.10;;;;;;5067824;28;43510;-83
2023/12/25 12:51:28;;;;;;;;;;;17.70;65.00;;;;;;5067465;28;43217;-84
2023/12/25 12:53:54;;;;;;;;;;;17.80;65.10;;;;;;5066757;28;43075;-84
2023/12/25 12:56:19;;;;;;;;;;;17.70;65.00;;;;;;5067539;28;42981;-84
2023/12/25 12:58:45;;;;;;;;;;;17.70;65.00;;;;;;5048528;28;44624;-87
2023/12/25 13:01:10;;;;;;;;;;;17.80;65.10;;;;;;5067285;28;43028;-84
2023/12/25 13:03:36;;;;;;;;;;;17.70;64.90;;;;;;5048179;28;45423;-84
2023/12/25 13:06:02;;;;;;;;;;;17.90;65.00;;;;;;5058911;28;42981;-83
2023/12/25 13:08:27;;;;;;;;;;;17.70;64.80;;;;;;5071197;28;43866;-84
2023/12/25 13:10:53;;;;;;;;;;;17.70;64.80;;;;;;5067853;28;43938;-84
2023/12/25 13:13:19;;;;;;;;;;;17.70;64.90;;;;;;5066598;28;44554;-84
2023/12/25 13:15:44;;;;;;;;;;;17.80;64.80;;;;;;5067555;28;42994;-83
2023/12/25 13:18:10;;;;;;;;;;;17.80;64.80;;;;;;5066544;28;44786;-84
2023/12/25 13:20:35;;;;;;;;;;;17.80;64.70;;;;;;5048797;28;42895;-83
2023/12/25 13:23:01;;;;;;;;;;;17.80;64.70;;;;;;5067293;28;44035;-84
2023/12/25 13:25:27;;;;;;;;;;;17.60;64.60;;;;;;5067259;28;42918;-85
2023/12/25 13:27:53;;;;;;;;;;;17.70;64.60;;;;;;5067007;28;43368;-83
2023/12/25 13:30:18;;;;;;;;;;;17.70;64.60;;;;;;5067198;28;42985;-83
2023/12/25 13:32:44;;;;;;;;;;;17.80;64.60;;;;;;5066813;28;43689;-84
2023/12/25 13:35:09;;;;;;;;;;;17.70;64.60;;;;;;5067279;28;42835;-83
2023/12/25 13:37:35;;;;;;;;;;;17.50;64.50;;;;;;5066941;28;43423;-83
2023/12/25 13:40:01;;;;;;;;;;;17.70;64.50;;;;;;5067410;28;42878;-83
2023/12/25 13:42:28;;;;;;;;;;;17.50;64.30;;;;;;5066727;28;43572;-84
2023/12/25 13:44:54;;;;;;;;;;;17.70;64.40;;;;;;5048838;28;43072;-83
2023/12/25 13:47:19;;;;;;;;;;;17.80;64.40;;;;;;5048086;28;44163;-83
2023/12/25 13:49:45;;;;;;;;;;;17.70;64.30;;;;;;5066774;28;42914;-83
2023/12/25 13:52:11;;;;;;;;;;;17.70;64.40;;;;;;5065873;28;43602;-84
2023/12/25 13:54:36;;;;;;;;;;;17.60;64.30;;;;;;5066344;28;42855;-84
2023/12/25 13:57:02;;;;;;;;;;;17.70;64.50;;;;;;5066769;28;43194;-83
2023/12/25 13:59:28;;;;;;;;;;;17.80;64.20;;;;;;5067319;28;42949;-84
2023/12/25 14:01:53;;;;;;;;;;;17.70;64.10;;;;;;5066543;28;42969;-84
2023/12/25 14:04:19;;;;;;;;;;;17.70;64.10;;;;;;5067299;28;43110;-83
2023/12/25 14:06:44;;;;;;;;;;;17.70;64.20;;;;;;5067038;28;43231;-83
2023/12/25 14:09:11;;;;;;;;;;;17.60;64.00;;;;;;5068828;28;43165;-84
2023/12/25 14:11:36;;;;;;;;;;;17.60;64.00;;;;;;5066254;28;42945;-84
2023/12/25 14:14:03;;;;;;;;;;;17.70;64.00;;;;;;5048774;28;42934;-83
2023/12/25 14:16:29;;;;;;;;;;;17.70;64.00;;;;;;5066463;28;43460;-84
2023/12/25 14:18:54;;;;;;;;;;;17.70;63.80;;;;;;5066908;28;43016;-84
2023/12/25 14:21:20;;;;;;;;;;;17.80;64.00;;;;;;5047671;28;44608;-84